Time;durP1;ratioP1;P1;durP2;ratioP2;P2;SDS_P1;SDS_P2;PMS_P1;PMS_P2;Temp;Humidity;BMP_temperature;BMP_pressure;BME280_temperature;BME280_humidity;BME280_pressure;Samples;Min_cycle;Max_cycle;Signal;HPM_P1;HPM_P2
2021/05/30 00:01:54;;;;;;;25.52;13.80;;;;;;;6.55;97.95;102837.94;4975143;28;20141;-74
2021/05/30 00:04:21;;;;;;;26.70;13.55;;;;;;;6.58;97.81;102835.22;4976755;28;20044;-74
2021/05/30 00:06:46;;;;;;;29.25;14.27;;;;;;;6.56;98.21;102844.03;4970273;28;20668;-75
2021/05/30 00:09:13;;;;;;;31.98;14.07;;;;;;;6.53;97.58;102833.72;4966786;28;20039;-74
2021/05/30 00:11:39;;;;;;;24.80;13.57;;;;;;;6.46;98.03;102843.59;4976529;28;20536;-75
2021/05/30 00:14:05;;;;;;;28.67;14.65;;;;;;;6.43;98.30;102841.94;4980194;28;20050;-75
2021/05/30 00:16:32;;;;;;;24.42;13.27;;;;;;;6.50;98.13;102842.53;4969557;28;20042;-73
2021/05/30 00:18:59;;;;;;;29.90;14.15;;;;;;;6.48;97.73;102839.16;4989349;28;20053;-74
2021/05/30 00:21:25;;;;;;;26.77;13.57;;;;;;;6.41;97.95;102846.38;4984615;28;20035;-74
2021/05/30 00:23:51;;;;;;;24.05;13.02;;;;;;;6.38;98.44;102846.50;5002459;28;20045;-74
2021/05/30 00:26:16;;;;;;;34.88;14.85;;;;;;;6.37;98.49;102852.66;4983627;28;20038;-72
2021/05/30 00:28:42;;;;;;;26.75;12.75;;;;;;;6.35;98.51;102840.63;4958884;28;20039;-74
2021/05/30 00:31:08;;;;;;;21.33;12.73;;;;;;;6.34;98.34;102851.94;4983791;28;20450;-74
2021/05/30 00:33:33;;;;;;;27.00;14.43;;;;;;;6.30;98.63;102851.22;4976777;28;20039;-74
2021/05/30 00:35:59;;;;;;;28.17;12.80;;;;;;;6.24;98.34;102854.94;4967070;28;20042;-75
2021/05/30 00:38:24;;;;;;;29.20;12.90;;;;;;;6.23;98.80;102840.25;4971116;28;20105;-75
2021/05/30 00:40:52;;;;;;;28.20;13.00;;;;;;;6.23;98.35;102841.97;4993647;28;20045;-75
2021/05/30 00:43:18;;;;;;;23.90;12.65;;;;;;;6.21;98.63;102849.84;4973157;28;20038;-74
2021/05/30 00:45:45;;;;;;;27.50;13.32;;;;;;;6.15;99.25;102839.72;4979402;28;20049;-73
2021/05/30 00:48:11;;;;;;;34.95;14.32;;;;;;;6.19;99.01;102843.88;4957587;28;20045;-74
2021/05/30 00:50:36;;;;;;;35.72;14.00;;;;;;;6.22;98.90;102840.31;4987331;28;20043;-74
2021/05/30 00:53:02;;;;;;;22.95;13.80;;;;;;;6.24;99.29;102834.09;4962482;28;20082;-75
2021/05/30 00:55:28;;;;;;;25.23;12.93;;;;;;;6.22;98.98;102838.53;4975950;28;20040;-75
2021/05/30 00:57:54;;;;;;;27.48;13.95;;;;;;;6.17;99.63;102830.06;4960155;28;20034;-74
2021/05/30 01:00:20;;;;;;;29.17;13.73;;;;;;;6.17;99.16;102837.03;4980357;28;20042;-76
2021/05/30 01:02:45;;;;;;;27.65;13.65;;;;;;;6.15;99.18;102837.09;4971055;28;20160;-76
2021/05/30 01:05:12;;;;;;;31.60;14.27;;;;;;;6.19;99.31;102836.06;4970923;28;20117;-73
2021/05/30 01:07:42;;;;;;;31.00;14.00;;;;;;;6.14;99.63;102840.63;4973182;28;20553;-76
2021/05/30 01:10:20;;;;;;;28.40;13.75;;;;;;;6.10;99.53;102838.22;4977675;28;20657;-75
2021/05/30 01:12:48;;;;;;;30.35;13.77;;;;;;;6.13;99.16;102841.53;4983740;28;20125;-74
2021/05/30 01:15:15;;;;;;;31.10;14.23;;;;;;;6.11;99.43;102838.16;4955476;28;20796;-75
2021/05/30 01:17:41;;;;;;;22.25;13.25;;;;;;;6.13;99.52;102833.72;4982876;28;20787;-73
2021/05/30 01:20:14;;;;;;;29.60;13.60;;;;;;;6.11;99.43;102839.91;4982339;28;20092;-74
2021/05/30 01:22:41;;;;;;;29.13;14.90;;;;;;;6.09;99.49;102839.97;4966697;28;20038;-75
2021/05/30 01:25:09;;;;;;;34.22;16.20;;;;;;;6.09;99.74;102831.31;4962946;28;20038;-75
2021/05/30 01:27:34;;;;;;;27.45;13.95;;;;;;;6.12;99.67;102828.56;4983977;28;20041;-72
2021/05/30 01:30:00;;;;;;;32.75;15.98;;;;;;;6.12;100.00;102837.25;4950515;28;20038;-76
2021/05/30 01:32:25;;;;;;;29.45;14.95;;;;;;;6.07;99.65;102836.59;4986298;28;20042;-74
2021/05/30 01:34:51;;;;;;;27.25;14.30;;;;;;;6.02;99.80;102842.00;4986824;28;20042;-74
2021/05/30 01:37:17;;;;;;;33.08;15.25;;;;;;;6.00;99.99;102841.22;4950645;28;20034;-74
2021/05/30 01:39:42;;;;;;;31.58;15.98;;;;;;;6.03;100.00;102843.69;4985825;28;20488;-73
2021/05/30 01:42:08;;;;;;;27.98;15.40;;;;;;;6.00;99.83;102838.59;4982484;28;20054;-73
2021/05/30 01:44:34;;;;;;;26.55;16.63;;;;;;;6.01;99.63;102845.53;4967787;28;20042;-73
2021/05/30 01:46:59;;;;;;;26.27;14.70;;;;;;;6.01;99.55;102845.53;4985035;28;20521;-74
2021/05/30 01:49:25;;;;;;;30.13;15.88;;;;;;;6.04;99.82;102850.59;4968902;28;20117;-74
2021/05/30 01:51:50;;;;;;;27.48;15.70;;;;;;;6.02;99.71;102843.75;4984861;28;20030;-75
2021/05/30 01:54:19;;;;;;;33.05;16.08;;;;;;;6.02;99.67;102843.75;5000906;28;20038;-74
2021/05/30 01:56:57;;;;;;;31.25;15.77;;;;;;;6.06;99.64;102845.31;4999387;28;20030;-74
2021/05/30 01:59:27;;;;;;;30.20;16.50;;;;;;;6.03;99.63;102848.06;4983430;28;20069;-74
2021/05/30 02:01:56;;;;;;;31.73;16.05;;;;;;;6.03;99.97;102850.66;4938594;28;20048;-75
2021/05/30 02:04:26;;;;;;;31.83;17.30;;;;;;;6.01;99.54;102844.69;4978903;28;20512;-74
2021/05/30 02:06:53;;;;;;;29.45;16.45;;;;;;;5.99;99.70;102841.28;4975250;28;20078;-74
2021/05/30 02:09:18;;;;;;;32.20;17.30;;;;;;;6.00;99.60;102849.03;4970821;28;20039;-74
2021/05/30 02:11:44;;;;;;;35.70;16.23;;;;;;;6.03;99.29;102848.91;4984434;28;20030;-75
2021/05/30 02:14:11;;;;;;;27.48;16.67;;;;;;;6.02;99.68;102848.97;4984351;28;20050;-75
2021/05/30 02:16:37;;;;;;;33.67;19.10;;;;;;;6.03;99.22;102845.47;4949276;28;20062;-75
2021/05/30 02:19:04;;;;;;;27.92;16.58;;;;;;;6.02;99.28;102849.81;4968171;28;20039;-75
2021/05/30 02:21:41;;;;;;;34.38;18.48;;;;;;;6.01;99.22;102847.28;4983468;28;20433;-75
2021/05/30 02:24:08;;;;;;;34.38;18.23;;;;;;;5.97;99.08;102851.78;4968046;28;20034;-74
2021/05/30 02:26:33;;;;;;;31.70;18.27;;;;;;;6.00;99.31;102854.22;4952925;28;20129;-74
2021/05/30 02:28:59;;;;;;;37.40;20.38;;;;;;;6.18;99.45;102850.00;4967922;28;20470;-73
2021/05/30 02:31:24;;;;;;;35.47;19.67;;;;;;;6.09;99.80;102853.00;4981548;28;20076;-74
2021/05/30 02:33:50;;;;;;;36.17;19.42;;;;;;;6.03;99.49;102845.47;4984908;28;20404;-74
2021/05/30 02:36:15;;;;;;;37.45;20.08;;;;;;;5.93;99.37;102844.94;4981231;28;20093;-74
2021/05/30 02:38:41;;;;;;;38.20;21.20;;;;;;;5.85;99.71;102847.88;4985148;28;20100;-74
2021/05/30 02:41:06;;;;;;;32.58;20.08;;;;;;;5.82;99.65;102850.63;4984122;28;20492;-74
2021/05/30 02:43:32;;;;;;;32.20;19.00;;;;;;;5.81;100.00;102848.91;4999599;28;20045;-73
2021/05/30 02:45:57;;;;;;;31.70;19.35;;;;;;;5.77;99.69;102851.72;4989041;28;20118;-74
2021/05/30 02:48:23;;;;;;;34.17;20.60;;;;;;;5.85;100.00;102852.25;5006558;28;20060;-74
2021/05/30 02:50:58;;;;;;;39.42;21.02;;;;;;;5.87;100.00;102853.03;5009027;28;20033;-75
2021/05/30 02:53:23;;;;;;;36.97;20.50;;;;;;;5.75;100.00;102856.16;4976141;28;20050;-75
2021/05/30 02:55:49;;;;;;;39.45;20.23;;;;;;;5.70;100.00;102856.34;4991956;28;20029;-75
2021/05/30 02:58:14;;;;;;;34.75;19.52;;;;;;;5.70;100.00;102861.53;4964411;28;20420;-74
2021/05/30 03:00:40;;;;;;;32.15;19.70;;;;;;;5.68;100.00;102852.09;4985936;28;20047;-74
2021/05/30 03:03:05;;;;;;;37.63;19.35;;;;;;;5.66;100.00;102849.56;4985562;28;20081;-76
2021/05/30 03:05:32;;;;;;;31.48;20.13;;;;;;;5.64;100.00;102849.63;4990687;28;20136;-74
2021/05/30 03:07:58;;;;;;;30.80;19.02;;;;;;;5.68;100.00;102849.50;4989849;28;20057;-74
2021/05/30 03:10:23;;;;;;;35.30;20.38;;;;;;;5.68;100.00;102847.72;4990061;28;20578;-76
2021/05/30 03:12:49;;;;;;;37.67;20.77;;;;;;;5.68;100.00;102836.47;4990191;28;20149;-74
2021/05/30 03:15:15;;;;;;;39.40;21.92;;;;;;;5.74;100.00;102842.28;4990174;28;20145;-75
2021/05/30 03:17:41;;;;;;;35.78;20.85;;;;;;;5.72;100.00;102846.69;4974617;28;20044;-75
2021/05/30 03:20:07;;;;;;;37.58;21.70;;;;;;;5.79;100.00;102840.31;4958507;28;20038;-73
2021/05/30 03:22:32;;;;;;;37.30;20.80;;;;;;;5.82;100.00;102841.94;4985268;28;20038;-74
2021/05/30 03:24:58;;;;;;;36.58;20.75;;;;;;;5.85;100.00;102849.63;4975265;28;20030;-74
2021/05/30 03:27:23;;;;;;;37.35;21.42;;;;;;;5.94;100.00;102844.06;5007716;28;20062;-73
2021/05/30 03:29:49;;;;;;;38.55;21.25;;;;;;;5.96;100.00;102850.06;4990994;28;20038;-74
2021/05/30 03:32:14;;;;;;;35.30;19.85;;;;;;;5.95;100.00;102848.41;5011769;28;20034;-74
2021/05/30 03:34:40;;;;;;;42.17;19.90;;;;;;;5.94;100.00;102851.88;4987632;28;20038;-76
2021/05/30 03:37:06;;;;;;;37.50;20.20;;;;;;;6.01;100.00;102844.69;4990351;28;20042;-76
2021/05/30 03:39:33;;;;;;;35.50;20.70;;;;;;;6.06;100.00;102840.09;4975367;28;20495;-73
2021/05/30 03:42:06;;;;;;;38.15;20.73;;;;;;;6.12;100.00;102847.69;4962651;28;20038;-74
2021/05/30 03:44:31;;;;;;;37.13;20.40;;;;;;;6.13;100.00;102851.13;4971133;28;20046;-75
2021/05/30 03:46:57;;;;;;;33.95;21.08;;;;;;;6.15;100.00;102849.28;4978928;28;20031;-74
2021/05/30 03:49:23;;;;;;;37.33;21.40;;;;;;;6.11;100.00;102855.56;4987326;28;20101;-75
2021/05/30 03:51:48;;;;;;;30.58;19.70;;;;;;;6.03;100.00;102846.31;5002990;28;20030;-75
2021/05/30 03:54:14;;;;;;;32.17;20.45;;;;;;;6.06;100.00;102858.34;4985383;28;20034;-74
2021/05/30 03:56:39;;;;;;;34.83;19.48;;;;;;;6.06;100.00;102849.69;4988682;28;20117;-75
2021/05/30 03:59:05;;;;;;;36.20;20.75;;;;;;;6.08;100.00;102848.69;4955071;28;20042;-75
2021/05/30 04:01:30;;;;;;;41.60;20.42;;;;;;;6.04;100.00;102847.97;5000976;28;20039;-75
2021/05/30 04:03:56;;;;;;;37.25;20.30;;;;;;;6.10;100.00;102854.69;4990165;28;20031;-75
2021/05/30 04:06:22;;;;;;;34.38;20.90;;;;;;;6.16;100.00;102857.06;5005031;28;20054;-73
2021/05/30 04:08:48;;;;;;;40.80;22.38;;;;;;;6.18;100.00;102855.22;4958715;28;20037;-74
2021/05/30 04:11:14;;;;;;;39.42;22.08;;;;;;;6.19;100.00;102851.69;4987588;28;20097;-74
2021/05/30 04:13:41;;;;;;;35.05;21.98;;;;;;;6.23;100.00;102852.41;4990005;28;20041;-73
2021/05/30 04:16:06;;;;;;;41.25;23.67;;;;;;;6.30;100.00;102851.22;5003106;28;20034;-74
2021/05/30 04:18:32;;;;;;;37.47;22.95;;;;;;;6.33;100.00;102842.41;4989660;28;20037;-75
2021/05/30 04:20:57;;;;;;;37.03;21.83;;;;;;;6.40;100.00;102846.44;4983703;28;20041;-75
2021/05/30 04:23:23;;;;;;;40.80;23.63;;;;;;;6.48;100.00;102848.72;5003908;28;20034;-74
2021/05/30 04:25:48;;;;;;;45.33;24.58;;;;;;;6.55;100.00;102860.56;5005702;28;20066;-73
2021/05/30 04:28:14;;;;;;;48.70;26.40;;;;;;;6.73;100.00;102856.31;4992360;28;20400;-74
2021/05/30 04:30:39;;;;;;;39.58;25.33;;;;;;;6.80;100.00;102855.94;4989029;28;20065;-74
2021/05/30 04:33:05;;;;;;;48.05;26.55;;;;;;;6.85;100.00;102850.50;4972821;28;20037;-74
2021/05/30 04:35:31;;;;;;;50.22;26.88;;;;;;;6.92;100.00;102851.94;5001923;28;20042;-74
2021/05/30 04:37:56;;;;;;;46.95;25.67;;;;;;;7.00;100.00;102856.78;4983961;28;20049;-74
2021/05/30 04:40:25;;;;;;;44.15;25.48;;;;;;;7.07;100.00;102852.97;4958487;28;20056;-73
2021/05/30 04:42:52;;;;;;;49.40;25.50;;;;;;;7.13;100.00;102851.84;4989481;28;20440;-74
2021/05/30 04:45:18;;;;;;;50.38;25.70;;;;;;;7.20;100.00;102853.25;4989630;28;20042;-74
2021/05/30 04:47:44;;;;;;;49.35;24.83;;;;;;;7.30;100.00;102851.03;4991024;28;20141;-74
2021/05/30 04:50:11;;;;;;;52.50;26.80;;;;;;;7.38;100.00;102857.59;4980726;28;20471;-74
2021/05/30 04:52:39;;;;;;;50.03;26.33;;;;;;;7.45;100.00;102858.13;4980209;28;20035;-75
2021/05/30 04:55:05;;;;;;;49.63;28.27;;;;;;;7.51;100.00;102860.44;4970010;28;20797;-74
2021/05/30 04:57:31;;;;;;;55.88;28.75;;;;;;;7.58;100.00;102861.00;4987987;28;20117;-73
2021/05/30 04:59:56;;;;;;;52.80;28.42;;;;;;;7.63;100.00;102856.41;5002781;28;20145;-76
2021/05/30 05:02:22;;;;;;;52.40;28.13;;;;;;;7.69;100.00;102852.63;4984167;28;20070;-75
2021/05/30 05:04:47;;;;;;;53.17;28.30;;;;;;;7.79;100.00;102853.88;4983537;28;20464;-74
2021/05/30 05:07:14;;;;;;;57.45;27.35;;;;;;;7.94;99.82;102850.47;4979614;28;20050;-76
2021/05/30 05:09:40;;;;;;;51.88;26.60;;;;;;;8.06;99.24;102851.63;4972113;28;20037;-74
2021/05/30 05:12:06;;;;;;;47.45;26.65;;;;;;;8.12;99.54;102845.25;4988793;28;20073;-73
2021/05/30 05:14:32;;;;;;;48.70;26.95;;;;;;;8.20;99.47;102850.91;4989264;28;20046;-73
2021/05/30 05:16:57;;;;;;;53.80;26.58;;;;;;;8.34;99.46;102852.81;4968958;28;20042;-74
2021/05/30 05:19:23;;;;;;;52.85;26.85;;;;;;;8.45;99.21;102853.13;4988313;28;20046;-74
2021/05/30 05:21:48;;;;;;;45.83;25.20;;;;;;;8.56;98.63;102848.16;5004934;28;20030;-72
2021/05/30 05:24:14;;;;;;;45.17;24.92;;;;;;;8.64;97.84;102849.53;4983859;28;20038;-74
2021/05/30 05:26:39;;;;;;;44.05;23.88;;;;;;;8.71;97.77;102854.34;4989615;28;20042;-74
2021/05/30 05:29:05;;;;;;;41.70;22.48;;;;;;;8.78;96.12;102844.41;4987848;28;20057;-72
2021/05/30 05:31:30;;;;;;;40.00;24.52;;;;;;;8.90;97.54;102848.13;4988196;28;20034;-73
2021/05/30 05:33:56;;;;;;;45.60;26.00;;;;;;;8.98;96.48;102855.56;4956515;28;20048;-74
2021/05/30 05:36:22;;;;;;;52.03;26.60;;;;;;;8.94;96.50;102853.09;4984706;28;20579;-75
2021/05/30 05:38:47;;;;;;;61.88;25.95;;;;;;;8.98;95.86;102843.31;5003156;28;20049;-75
2021/05/30 05:41:13;;;;;;;52.08;23.73;;;;;;;8.93;94.77;102843.56;4970897;28;20030;-75
2021/05/30 05:43:38;;;;;;;54.47;25.40;;;;;;;8.99;95.14;102852.03;4970475;28;20053;-74
2021/05/30 05:46:04;;;;;;;50.15;24.10;;;;;;;9.09;94.06;102856.63;4981702;28;20034;-74
2021/05/30 05:48:29;;;;;;;51.47;23.42;;;;;;;9.06;93.31;102858.59;4967060;28;20073;-74
2021/05/30 05:50:55;;;;;;;46.30;23.75;;;;;;;9.05;96.21;102851.69;4989053;28;20754;-74
2021/05/30 05:53:20;;;;;;;43.40;22.70;;;;;;;9.05;95.25;102849.06;5003721;28;20035;-73
2021/05/30 05:55:46;;;;;;;40.20;22.25;;;;;;;9.11;94.87;102848.72;4988492;28;20142;-71
2021/05/30 05:58:12;;;;;;;49.72;22.67;;;;;;;9.22;94.11;102845.50;4989798;28;20061;-74
2021/05/30 06:00:37;;;;;;;48.40;23.45;;;;;;;9.35;94.04;102856.97;5003028;28;20566;-75
2021/05/30 06:03:03;;;;;;;46.38;24.25;;;;;;;9.36;92.45;102853.41;4971522;28;20137;-75
2021/05/30 06:05:29;;;;;;;55.70;26.55;;;;;;;9.32;92.40;102863.22;4985156;28;20123;-73
2021/05/30 06:07:56;;;;;;;53.55;27.30;;;;;;;9.28;93.03;102856.44;4957421;28;20038;-74
2021/05/30 06:10:24;;;;;;;53.15;26.27;;;;;;;9.43;91.70;102853.91;4972549;28;20065;-74
2021/05/30 06:12:55;;;;;;;50.15;24.95;;;;;;;9.48;91.99;102855.34;4980469;28;20039;-75
2021/05/30 06:15:21;;;;;;;49.58;25.42;;;;;;;9.57;92.24;102856.59;4988493;28;20073;-75
2021/05/30 06:17:56;;;;;;;49.58;25.13;;;;;;;9.61;91.31;102858.09;4960396;28;20125;-75
2021/05/30 06:20:23;;;;;;;46.40;25.33;;;;;;;9.73;92.44;102859.16;4985007;28;20540;-74
2021/05/30 06:22:49;;;;;;;41.65;22.60;;;;;;;9.81;89.78;102858.72;4975991;28;20036;-75
2021/05/30 06:25:15;;;;;;;37.38;23.92;;;;;;;9.94;91.00;102862.28;4970907;28;20042;-74
2021/05/30 06:27:41;;;;;;;44.80;24.73;;;;;;;9.87;90.25;102863.59;4961066;28;20046;-75
2021/05/30 06:30:07;;;;;;;48.67;24.95;;;;;;;9.87;89.93;102859.22;5015034;28;20037;-75
2021/05/30 06:32:33;;;;;;;47.08;24.48;;;;;;;9.98;90.73;102865.59;4992844;28;20030;-75
2021/05/30 06:34:59;;;;;;;44.78;24.52;;;;;;;10.03;88.75;102866.16;4992495;28;20100;-74
2021/05/30 06:37:25;;;;;;;42.75;24.48;;;;;;;10.12;89.55;102865.63;4990496;28;20050;-75
2021/05/30 06:39:51;;;;;;;40.30;23.23;;;;;;;10.20;89.50;102862.53;4975116;28;20039;-73
2021/05/30 06:42:17;;;;;;;50.78;24.25;;;;;;;10.27;88.28;102859.44;4975529;28;20046;-74
2021/05/30 06:44:43;;;;;;;40.42;24.10;;;;;;;10.29;88.89;102856.75;4977486;28;20050;-74
2021/05/30 06:47:09;;;;;;;45.80;23.77;;;;;;;10.47;87.02;102857.41;5005312;28;20026;-74
2021/05/30 06:49:34;;;;;;;54.70;25.23;;;;;;;10.58;86.60;102869.88;4979238;28;20097;-74
2021/05/30 06:52:00;;;;;;;46.22;23.75;;;;;;;10.66;86.28;102857.97;4993345;28;20081;-73
2021/05/30 06:54:25;;;;;;;44.50;24.27;;;;;;;10.91;87.96;102866.94;4953598;28;20038;-74
2021/05/30 06:56:52;;;;;;;43.60;24.05;;;;;;;11.00;85.37;102861.13;4969761;28;20125;-73
2021/05/30 06:59:19;;;;;;;48.28;23.20;;;;;;;11.04;85.20;102864.41;4976508;28;20092;-75
2021/05/30 07:01:45;;;;;;;42.17;22.60;;;;;;;10.87;84.65;102860.22;4987100;28;20401;-74
2021/05/30 07:04:11;;;;;;;41.88;23.33;;;;;;;10.92;85.44;102858.13;4976706;28;20038;-77
2021/05/30 07:06:37;;;;;;;46.10;23.05;;;;;;;10.91;86.12;102859.06;4975441;28;20134;-75
2021/05/30 07:09:05;;;;;;;48.15;23.40;;;;;;;10.98;85.98;102857.75;4961826;28;20047;-75
2021/05/30 07:11:32;;;;;;;43.72;22.42;;;;;;;11.20;86.06;102861.63;5012096;28;20602;-74
2021/05/30 07:13:58;;;;;;;42.33;20.67;;;;;;;11.16;83.72;102860.13;4976935;28;20106;-74
2021/05/30 07:16:24;;;;;;;37.13;20.92;;;;;;;11.17;86.67;102861.78;4974030;28;20042;-77
2021/05/30 07:18:50;;;;;;;36.47;20.02;;;;;;;11.34;84.37;102860.72;5015677;28;20409;-76
2021/05/30 07:21:16;;;;;;;33.25;19.52;;;;;;;11.28;83.80;102851.44;4961939;28;20042;-75
2021/05/30 07:23:42;;;;;;;35.03;20.65;;;;;;;11.26;82.96;102848.06;4988391;28;20026;-74
2021/05/30 07:26:08;;;;;;;37.00;19.42;;;;;;;11.67;82.54;102852.41;4986696;28;20514;-76
2021/05/30 07:28:34;;;;;;;34.22;18.58;;;;;;;11.94;82.22;102854.16;4993399;28;20037;-75
2021/05/30 07:31:00;;;;;;;32.63;17.75;;;;;;;11.98;81.26;102856.50;4960787;28;20034;-76
2021/05/30 07:33:26;;;;;;;27.38;16.25;;;;;;;12.13;80.72;102851.09;4994072;28;20095;-75
2021/05/30 07:35:51;;;;;;;30.25;16.10;;;;;;;12.13;81.17;102856.38;4965690;28;20046;-74
2021/05/30 07:38:17;;;;;;;31.92;17.38;;;;;;;12.19;80.20;102858.59;4963163;28;20129;-75
2021/05/30 07:40:43;;;;;;;36.15;19.52;;;;;;;12.46;81.97;102854.03;4986664;28;20396;-75
2021/05/30 07:43:09;;;;;;;27.10;17.90;;;;;;;12.58;79.10;102848.84;4977082;28;20123;-75
2021/05/30 07:45:35;;;;;;;32.47;18.33;;;;;;;12.54;78.46;102863.19;4989954;28;20073;-74
2021/05/30 07:48:01;;;;;;;29.08;16.23;;;;;;;12.67;78.10;102866.66;4954105;28;20041;-76
2021/05/30 07:50:27;;;;;;;30.23;15.45;;;;;;;12.71;78.92;102857.56;4986161;28;20058;-75
2021/05/30 07:52:53;;;;;;;25.83;15.43;;;;;;;12.90;77.36;102859.72;5006973;28;20040;-75
2021/05/30 07:55:20;;;;;;;23.42;14.48;;;;;;;12.82;76.56;102870.81;4961400;28;20038;-74
2021/05/30 07:57:47;;;;;;;22.88;12.98;;;;;;;12.89;76.05;102873.03;4965356;28;20900;-76
2021/05/30 08:00:16;;;;;;;25.88;14.05;;;;;;;12.81;76.09;102870.94;4960001;28;20080;-75
2021/05/30 08:02:46;;;;;;;24.63;14.48;;;;;;;12.81;75.10;102869.16;4994050;28;20026;-76
2021/05/30 08:05:16;;;;;;;24.60;14.13;;;;;;;13.17;73.45;102874.53;4956284;28;20047;-75
2021/05/30 08:07:42;;;;;;;26.05;14.48;;;;;;;12.94;73.67;102877.03;4988960;28;20038;-74
2021/05/30 08:10:08;;;;;;;24.67;13.80;;;;;;;13.00;74.91;102871.31;4979981;28;20472;-76
2021/05/30 08:12:34;;;;;;;23.85;13.02;;;;;;;13.35;74.16;102872.34;4968408;28;20123;-75
2021/05/30 08:15:00;;;;;;;23.75;13.52;;;;;;;13.06;74.96;102872.66;4971257;28;20065;-75
2021/05/30 08:17:26;;;;;;;22.13;11.68;;;;;;;13.33;76.43;102879.53;4955023;28;20125;-73
2021/05/30 08:19:51;;;;;;;18.85;11.02;;;;;;;13.56;72.84;102881.31;4984618;28;20060;-73
2021/05/30 08:22:17;;;;;;;21.55;11.10;;;;;;;13.60;72.92;102872.22;4989937;28;20092;-78
2021/05/30 08:24:44;;;;;;;19.85;11.50;;;;;;;13.59;72.02;102881.06;4981136;28;20045;-74
2021/05/30 08:27:10;;;;;;;20.05;11.85;;;;;;;13.68;72.62;102878.72;4959556;28;20106;-76
2021/05/30 08:29:36;;;;;;;22.10;11.10;;;;;;;13.71;70.03;102883.75;4994625;28;20065;-75
2021/05/30 08:32:03;;;;;;;21.00;9.93;;;;;;;13.90;70.55;102881.44;4970165;28;20492;-75
2021/05/30 08:34:30;;;;;;;16.50;9.55;;;;;;;13.66;69.46;102875.38;4954075;28;20455;-75
2021/05/30 08:36:57;;;;;;;22.95;9.98;;;;;;;13.67;70.15;102874.41;4977752;28;20042;-75
2021/05/30 08:39:23;;;;;;;26.02;10.43;;;;;;;13.75;69.64;102880.78;4968149;28;20105;-73
2021/05/30 08:41:48;;;;;;;18.23;10.88;;;;;;;13.62;70.20;102872.94;4969076;28;20137;-75
2021/05/30 08:44:15;;;;;;;20.13;10.45;;;;;;;13.74;69.97;102865.91;4979586;28;20066;-75
2021/05/30 08:46:41;;;;;;;25.10;11.82;;;;;;;14.06;73.01;102872.34;4984555;28;20038;-74
2021/05/30 08:49:10;;;;;;;18.02;10.80;;;;;;;14.08;70.37;102867.78;4989709;28;20034;-75
2021/05/30 08:51:39;;;;;;;24.42;11.20;;;;;;;14.32;72.31;102875.63;4987597;28;20042;-74
2021/05/30 08:54:10;;;;;;;24.23;11.30;;;;;;;14.24;70.80;102881.50;4974465;28;20081;-75
2021/05/30 08:56:39;;;;;;;19.25;10.95;;;;;;;14.54;72.15;102872.13;4964441;28;20034;-75
2021/05/30 08:59:29;;;;;;;21.98;11.95;;;;;;;14.73;72.20;102880.31;4982403;28;20042;-74
2021/05/30 09:02:01;;;;;;;26.55;11.52;;;;;;;14.91;68.76;102871.88;4962439;28;20046;-74
2021/05/30 09:04:54;;;;;;;22.05;11.30;;;;;;;14.88;65.84;102882.69;4992060;28;20046;-74
2021/05/30 09:07:36;;;;;;;18.95;11.30;;;;;;;14.70;68.23;102872.63;4980136;28;20117;-75
2021/05/30 09:10:26;;;;;;;19.05;10.73;;;;;;;14.99;67.92;102877.38;4989655;28;20126;-74
2021/05/30 09:13:16;;;;;;;22.63;11.38;;;;;;;15.16;67.47;102874.25;4996896;28;20038;-75
2021/05/30 09:18:20;;;;;;;22.05;11.38;;;;;;;15.38;67.47;102872.47;4981164;28;20046;-74
2021/05/30 09:20:57;;;;;;;22.33;11.18;;;;;;;15.50;67.36;102878.53;4975394;28;20117;-75
2021/05/30 09:23:33;;;;;;;21.10;11.27;;;;;;;15.59;65.68;102869.84;4972362;28;20033;-74
2021/05/30 09:26:12;;;;;;;20.80;11.52;;;;;;;15.89;69.56;102873.56;5001974;28;20041;-76
2021/05/30 09:29:03;;;;;;;20.67;11.23;;;;;;;16.11;66.68;102873.44;5006462;28;20073;-77
2021/05/30 09:31:30;;;;;;;18.23;10.65;;;;;;;16.29;63.84;102871.03;4966732;28;20074;-74
2021/05/30 09:33:58;;;;;;;18.20;11.38;;;;;;;15.98;64.69;102874.59;4986374;28;20045;-77
2021/05/30 09:36:51;;;;;;;19.73;10.90;;;;;;;16.00;63.35;102870.84;4974922;28;20046;-75
2021/05/30 09:39:35;;;;;;;19.50;9.63;;;;;;;15.90;61.85;102869.97;4967530;28;20129;-76
2021/05/30 09:42:35;;;;;;;17.90;9.68;;;;;;;16.31;67.48;102871.72;4982778;28;20030;-78
2021/05/30 09:45:20;;;;;;;22.23;10.07;;;;;;;16.62;63.13;102870.88;4987516;28;20046;-77
2021/05/30 09:47:46;;;;;;;16.58;9.50;;;;;;;16.57;62.34;102868.59;4984714;28;20101;-77
2021/05/30 09:50:19;;;;;;;17.90;9.95;;;;;;;16.52;64.03;102874.31;5002495;28;20049;-76
2021/05/30 09:52:54;;;;;;;18.05;10.52;;;;;;;16.72;62.27;102863.75;4976447;28;20200;-76
2021/05/30 09:55:32;;;;;;;19.92;9.75;;;;;;;17.08;61.62;102872.09;4987614;28;20033;-77
2021/05/30 09:58:14;;;;;;;17.38;10.02;;;;;;;16.90;61.22;102874.59;4981229;28;20034;-75
2021/05/30 10:00:44;;;;;;;20.02;9.95;;;;;;;16.95;61.25;102856.44;4972241;28;20117;-77
2021/05/30 10:03:13;;;;;;;15.70;8.93;;;;;;;17.12;59.40;102866.41;4961548;28;20054;-75
2021/05/30 10:05:40;;;;;;;17.63;9.65;;;;;;;17.07;58.63;102858.00;4982775;28;20042;-75
2021/05/30 10:08:06;;;;;;;18.10;9.95;;;;;;;17.30;59.45;102871.00;4966111;28;20101;-75
2021/05/30 10:10:35;;;;;;;18.05;9.25;;;;;;;17.25;62.55;102868.78;4979759;28;20045;-75
2021/05/30 10:13:03;;;;;;;16.40;8.50;;;;;;;17.50;59.63;102850.63;4973697;28;20035;-76
2021/05/30 10:15:28;;;;;;;23.35;10.50;;;;;;;17.46;58.62;102863.34;4988682;28;20034;-77
2021/05/30 10:18:00;;;;;;;17.33;9.35;;;;;;;17.27;59.52;102858.00;4976023;28;20040;-76
2021/05/30 10:20:27;;;;;;;19.63;9.98;;;;;;;17.22;59.15;102857.63;5011920;28;20042;-73
2021/05/30 10:22:58;;;;;;;16.25;10.10;;;;;;;17.29;60.24;102859.56;5004785;28;20034;-75
2021/05/30 10:25:32;;;;;;;20.08;9.32;;;;;;;17.38;60.60;102851.75;4977406;28;20046;-76
2021/05/30 10:28:12;;;;;;;17.88;9.80;;;;;;;17.48;57.45;102856.06;4966131;28;20526;-75
2021/05/30 10:30:40;;;;;;;15.20;9.55;;;;;;;17.43;57.84;102849.50;4983380;28;20070;-74
2021/05/30 10:33:17;;;;;;;18.75;9.50;;;;;;;17.69;61.82;102855.91;4995992;28;20058;-76
2021/05/30 10:35:45;;;;;;;17.40;10.43;;;;;;;17.33;58.16;102852.19;4972729;28;20035;-74
2021/05/30 10:38:15;;;;;;;16.95;9.77;;;;;;;17.57;58.09;102858.84;4973148;28;20062;-75
2021/05/30 10:40:43;;;;;;;19.10;10.45;;;;;;;17.30;56.47;102842.66;4973323;28;20105;-76
2021/05/30 10:43:09;;;;;;;16.48;9.02;;;;;;;17.84;60.43;102858.13;4961741;28;20045;-75
2021/05/30 10:45:36;;;;;;;19.95;9.27;;;;;;;18.13;56.37;102846.59;4997755;28;20043;-76
2021/05/30 10:48:06;;;;;;;19.10;8.88;;;;;;;18.48;57.26;102849.38;4984570;28;20035;-75
2021/05/30 10:50:37;;;;;;;16.10;7.75;;;;;;;18.79;56.30;102846.41;4977118;28;20133;-74
2021/05/30 10:53:23;;;;;;;18.00;8.88;;;;;;;18.99;57.40;102838.34;5006684;28;20118;-76
2021/05/30 10:55:50;;;;;;;14.60;8.90;;;;;;;19.18;54.16;102840.84;4984924;28;20049;-77
2021/05/30 10:58:17;;;;;;;18.27;8.75;;;;;;;18.90;54.78;102829.44;4974118;28;20026;-76
2021/05/30 11:00:44;;;;;;;15.27;8.32;;;;;;;19.00;56.71;102838.16;4992746;28;20042;-76
2021/05/30 11:03:12;;;;;;;16.48;8.52;;;;;;;18.96;53.90;102833.31;4967390;28;20022;-75
2021/05/30 11:05:57;;;;;;;16.77;8.25;;;;;;;19.02;53.22;102828.25;4997279;28;20749;-77
2021/05/30 11:08:28;;;;;;;13.43;7.97;;;;;;;18.91;52.78;102847.09;4994913;28;20502;-75
2021/05/30 11:11:20;;;;;;;14.47;7.63;;;;;;;18.96;54.19;102836.81;5008275;28;20060;-74
2021/05/30 11:13:49;;;;;;;12.40;7.57;;;;;;;19.08;54.68;102840.09;4958872;28;20133;-77
2021/05/30 11:16:16;;;;;;;15.43;7.38;;;;;;;18.97;52.95;102825.19;5014972;28;20035;-76
2021/05/30 11:18:54;;;;;;;13.15;7.85;;;;;;;19.30;54.43;102835.28;5005252;28;20041;-76
2021/05/30 11:21:41;;;;;;;16.70;7.95;;;;;;;19.40;55.20;102828.03;4996791;28;20724;-76